Hovedside
METAR-TAF:

METAR-TAF

Lufthavner :

Jyväskylä lufthavn

Jyväskylä, Finland

breddegrad: 62-24N, lengdegrad: 025-41E, høyde over havet: 141 m

Gjeldene værobservasjon

Denne rapporten ble laget for 5 minutter siden, klokken 19:50 UTC
Vind 4 kt fra Sør-sørøst
Temperatur 15°C
Luftfuktighet 77%
Trykk 1017 hPa
Sikt 10 km eller mer
ingen skyer under 1500 m og ingen bygeskyer

METAR: EFJY 161950Z AUTO 16004KT CAVOK 15/11 Q1017

Tid: 22:55 (19:55 UTC)

Varsel

Denne rapporten ble laget for 2 timer og 19 minutter siden, klokken 17:36 UTC
Varsel gyldig fra 16. klokken 18 UTC til 17. klokken 18 UTC
Vind 5 kt fra Sør
Sikt 10 km eller mer
ingen skyer under 1500 m og ingen bygeskyer
Sannsynlighet 30%
fra 17. klokken 13 UTC til 17. klokken 15 UTC
Få skyer i en høyde av 4000 ft, Tårnskyer (cumulus).
Spredte skyer i en høyde av 25000 ft

TAF: EFJY 161736Z 1618/1718 18005KT CAVOK PROB30 1713/1715 FEW040TCU SCT250

Værobservasjoner og værvarsel for over 4000 flyplasser (METAR- og TAF-rapporter).

Tilgjengelige stasjoner er representert av de røde og gule prikkene på kartet.

Hold musepekeren over prikken for å se navnet på stasjonen.

Klikk så for å se værobservasjoner og -varsler.

For å forandre kartet kan du klikke på den grønne knappen med svart kryss for å zoome inn, på den grønne knappen med strek for å zoome ut, eller på de grønne pilene for å se tilstøtende kart.


METAR-TAF: